Time;durP1;ratioP1;P1;durP2;ratioP2;P2;SDS_P1;SDS_P2;PMS_P1;PMS_P2;Temp;Humidity;BMP_temperature;BMP_pressure;BME280_temperature;BME280_humidity;BME280_pressure;Samples;Min_cycle;Max_cycle;Signal;HPM_P1;HPM_P2
2021/11/11 00:00:11;;;;;;;13.80;7.30;;;;;;;0.69;57.94;101240.36;106072;1319;138403;-65
2021/11/11 00:02:40;;;;;;;16.40;7.50;;;;;;;0.67;57.89;101239.66;106182;1319;22635;-65
2021/11/11 00:05:09;;;;;;;13.90;7.20;;;;;;;0.63;57.86;101237.57;106177;1319;22479;-66
2021/11/11 00:07:38;;;;;;;12.30;7.30;;;;;;;0.59;58.17;101236.13;106040;1319;138502;-65
2021/11/11 00:10:09;;;;;;;15.80;8.10;;;;;;;0.57;58.29;101237.39;106134;1319;22898;-66
2021/11/11 00:12:37;;;;;;;17.80;7.10;;;;;;;0.54;58.41;101228.23;106086;1319;138206;-66
2021/11/11 00:15:07;;;;;;;12.30;7.30;;;;;;;0.53;58.20;101218.17;106105;1319;22494;-65
2021/11/11 00:17:35;;;;;;;13.60;6.70;;;;;;;0.51;58.39;101216.40;106194;1319;23022;-65
2021/11/11 00:20:05;;;;;;;17.00;7.80;;;;;;;0.47;58.50;101213.20;106088;1319;137357;-65
2021/11/11 00:22:37;;;;;;;13.40;7.50;;;;;;;0.45;58.80;101212.20;106134;1319;22412;-65
2021/11/11 00:25:06;;;;;;;12.80;7.00;;;;;;;0.43;59.01;101208.08;106099;1319;138044;-66
2021/11/11 00:27:34;;;;;;;12.70;6.40;;;;;;;0.42;59.13;101207.98;106176;1319;22283;-66
2021/11/11 00:30:04;;;;;;;11.20;7.00;;;;;;;0.42;59.14;101206.26;106082;1319;139282;-66
2021/11/11 00:32:32;;;;;;;11.80;6.80;;;;;;;0.41;59.29;101201.71;106200;1322;22423;-65
2021/11/11 00:35:00;;;;;;;13.70;7.10;;;;;;;0.40;59.29;101198.95;106137;1319;22407;-66
2021/11/11 00:37:28;;;;;;;12.80;7.20;;;;;;;0.38;59.40;101198.40;106036;1320;138252;-66
2021/11/11 00:40:00;;;;;;;12.40;7.10;;;;;;;0.38;59.58;101198.38;106136;1319;22456;-67
2021/11/11 00:42:29;;;;;;;12.10;6.80;;;;;;;0.39;59.60;101192.04;106027;1319;138265;-66
2021/11/11 00:44:57;;;;;;;15.30;7.90;;;;;;;0.38;59.43;101190.14;106153;1319;22919;-66
2021/11/11 00:47:25;;;;;;;14.20;6.40;;;;;;;0.39;59.69;101187.39;106148;1318;22435;-65
2021/11/11 00:49:53;;;;;;;15.70;6.50;;;;;;;0.39;59.55;101186.65;102625;1319;137454;-65
2021/11/11 00:52:22;;;;;;;11.10;6.40;;;;;;;0.38;59.60;101184.98;106067;1319;22632;-66
2021/11/11 00:54:50;;;;;;;14.90;8.10;;;;;;;0.40;59.81;101183.84;106060;1319;140348;-66
2021/11/11 00:57:36;;;;;;;13.90;6.70;;;;;;;0.40;59.68;101181.27;106185;1319;22979;-65
2021/11/11 01:00:06;;;;;;;13.60;7.70;;;;;;;0.38;59.88;101177.98;105997;1319;138339;-65
2021/11/11 01:02:37;;;;;;;17.60;7.60;;;;;;;0.38;59.72;101174.67;106101;1319;22390;-65
2021/11/11 01:05:06;;;;;;;14.20;7.70;;;;;;;0.38;60.13;101175.00;106111;1319;22453;-66
2021/11/11 01:07:54;;;;;;;15.60;7.60;;;;;;;0.37;60.13;101169.20;106049;1319;138225;-65
2021/11/11 01:10:23;;;;;;;12.40;7.10;;;;;;;0.36;59.98;101166.94;105437;1320;22497;-66
2021/11/11 01:12:52;;;;;;;14.70;8.40;;;;;;;0.36;60.21;101165.87;106056;1319;137508;-66
2021/11/11 01:15:23;;;;;;;15.60;7.80;;;;;;;0.37;60.14;101166.14;106162;1319;22491;-66
2021/11/11 01:17:51;;;;;;;14.80;7.90;;;;;;;0.37;60.24;101164.37;106137;1319;22511;-65
2021/11/11 01:20:20;;;;;;;13.50;7.20;;;;;;;0.35;60.45;101161.44;106063;1319;137452;-65
2021/11/11 01:22:49;;;;;;;12.40;6.60;;;;;;;0.34;60.34;101158.70;105936;1325;22446;-66
2021/11/11 01:25:22;;;;;;;11.00;6.10;;;;;;;0.32;60.36;101158.17;106063;1319;138576;-66
2021/11/11 01:27:51;;;;;;;12.30;6.40;;;;;;;0.31;60.33;101158.80;106082;1319;22483;-66
2021/11/11 01:30:26;;;;;;;11.80;5.80;;;;;;;0.31;60.55;101155.22;105798;1321;137670;-66
2021/11/11 01:33:00;;;;;;;13.20;6.90;;;;;;;0.31;60.62;101149.55;106145;1323;22636;-66
2021/11/11 01:35:30;;;;;;;12.90;6.90;;;;;;;0.30;60.61;101150.91;106007;1319;22533;-65
2021/11/11 01:37:59;;;;;;;11.90;6.30;;;;;;;0.24;60.72;101146.80;105947;1319;138593;-66
2021/11/11 01:40:27;;;;;;;11.00;5.70;;;;;;;0.26;60.85;101149.19;106101;1319;22611;-71
2021/11/11 01:42:59;;;;;;;12.40;7.50;;;;;;;0.25;60.62;101147.47;106038;1320;137724;-71
2021/11/11 01:45:38;;;;;;;15.50;7.40;;;;;;;0.25;61.05;101142.98;106128;1318;23258;-71
2021/11/11 01:48:22;;;;;;;11.10;6.60;;;;;;;0.25;60.88;101138.38;106012;1319;137568;-71
2021/11/11 01:50:50;;;;;;;13.10;7.00;;;;;;;0.24;60.95;101136.70;105892;1319;22409;-72
2021/11/11 01:53:19;;;;;;;14.00;7.00;;;;;;;0.22;61.19;101133.69;106167;1319;22435;-72
2021/11/11 01:55:51;;;;;;;11.30;7.20;;;;;;;0.21;61.19;101129.52;105671;1323;449848;-72
2021/11/11 01:58:22;;;;;;;13.80;7.10;;;;;;;0.19;61.21;101126.95;106021;1319;22894;-72
2021/11/11 02:00:55;;;;;;;14.80;7.20;;;;;;;0.20;61.13;101117.95;106002;1319;138829;-72
2021/11/11 02:03:30;;;;;;;13.20;6.70;;;;;;;0.20;61.48;101114.34;106123;1319;22461;-72
2021/11/11 02:06:01;;;;;;;13.00;6.20;;;;;;;0.20;61.29;101103.08;106084;1319;137934;-72
2021/11/11 02:09:09;;;;;;;11.60;6.00;;;;;;;0.18;61.69;101097.95;106176;1323;22453;-73
2021/11/11 02:12:15;;;;;;;13.80;6.50;;;;;;;0.17;61.75;101098.08;105882;1323;137724;-72
2021/11/11 02:14:57;;;;;;;12.30;6.60;;;;;;;0.15;61.78;101092.87;104369;1320;24298;-72
2021/11/11 02:17:44;;;;;;;12.20;6.40;;;;;;;0.13;61.73;101090.46;102184;1319;22741;-72
2021/11/11 02:20:25;;;;;;;14.70;6.60;;;;;;;0.11;61.87;101091.67;106058;1319;137142;-73
2021/11/11 02:23:05;;;;;;;15.80;6.30;;;;;;;0.10;61.91;101087.36;106089;1319;22428;-73
2021/11/11 02:25:54;;;;;;;14.70;5.60;;;;;;;0.10;61.86;101087.54;106058;1323;137706;-73
2021/11/11 02:28:24;;;;;;;12.80;5.60;;;;;;;0.09;62.01;101090.50;106101;1319;22303;-70
2021/11/11 02:30:53;;;;;;;12.60;6.10;;;;;;;0.08;62.41;101089.19;105878;1322;137530;-70
2021/11/11 02:33:31;;;;;;;10.90;6.60;;;;;;;0.06;62.24;101081.80;106181;1320;22462;-70
2021/11/11 02:35:59;;;;;;;10.40;5.70;;;;;;;0.05;62.21;101077.44;106021;1319;137470;-70
2021/11/11 02:38:28;;;;;;;13.70;6.50;;;;;;;0.04;62.33;101075.45;106088;1319;22548;-71
2021/11/11 02:40:57;;;;;;;13.70;6.40;;;;;;;0.02;62.27;101075.79;105956;1319;22421;-70
2021/11/11 02:43:25;;;;;;;13.60;6.30;;;;;;;-0.00;62.23;101076.92;105955;1322;138466;-71
2021/11/11 02:45:53;;;;;;;16.90;6.20;;;;;;;-0.02;62.35;101077.25;106116;1319;22461;-71
2021/11/11 02:48:26;;;;;;;13.00;7.00;;;;;;;-0.03;62.47;101076.44;105878;1325;138025;-70
2021/11/11 02:50:56;;;;;;;11.90;6.60;;;;;;;-0.05;62.51;101072.42;105970;1323;22427;-72
2021/11/11 02:53:24;;;;;;;10.80;6.50;;;;;;;-0.09;62.47;101068.52;106184;1319;22460;-71
2021/11/11 02:55:53;;;;;;;12.20;6.90;;;;;;;-0.13;62.84;101060.86;105791;1324;138029;-71
2021/11/11 02:58:23;;;;;;;14.70;6.30;;;;;;;-0.14;62.85;101056.36;105316;1324;22595;-71
2021/11/11 03:01:03;;;;;;;10.10;6.50;;;;;;;-0.17;63.02;101053.41;101716;1322;137740;-71
2021/11/11 03:03:32;;;;;;;11.00;6.60;;;;;;;-0.18;62.71;101052.12;106025;1320;23314;-70
2021/11/11 03:06:03;;;;;;;13.30;7.00;;;;;;;-0.20;63.11;101053.84;105868;1322;139151;-70
2021/11/11 03:08:33;;;;;;;11.50;7.40;;;;;;;-0.20;63.04;101048.55;105904;1322;23146;-71
2021/11/11 03:11:04;;;;;;;10.70;6.00;;;;;;;-0.21;63.07;101045.79;105955;1325;22398;-70
2021/11/11 03:13:52;;;;;;;12.20;6.40;;;;;;;-0.22;63.30;101040.71;105089;1326;139777;-70
2021/11/11 03:16:36;;;;;;;13.40;6.60;;;;;;;-0.22;63.12;101036.61;105658;1325;23234;-71
2021/11/11 03:19:04;;;;;;;9.70;6.30;;;;;;;-0.23;63.38;101029.75;105867;1325;137894;-71
2021/11/11 03:21:32;;;;;;;12.60;6.10;;;;;;;-0.24;63.22;101024.83;105959;1325;22396;-71
2021/11/11 03:24:00;;;;;;;9.90;5.40;;;;;;;-0.26;63.15;101022.67;105862;1325;138062;-70
2021/11/11 03:26:29;;;;;;;10.20;5.70;;;;;;;-0.25;63.57;101020.83;105952;1320;23275;-70
2021/11/11 03:28:58;;;;;;;10.00;5.30;;;;;;;-0.25;63.35;101015.84;105925;1320;23579;-70
2021/11/11 03:31:33;;;;;;;10.20;5.90;;;;;;;-0.25;63.51;101010.59;105824;1325;138974;-70
2021/11/11 03:34:02;;;;;;;10.70;5.90;;;;;;;-0.24;63.57;101002.02;105978;1325;22297;-71
2021/11/11 03:36:30;;;;;;;11.80;6.20;;;;;;;-0.26;63.78;101000.50;105873;1319;138656;-70
2021/11/11 03:38:58;;;;;;;10.40;5.40;;;;;;;-0.27;63.91;100994.02;105944;1325;22384;-71
2021/11/11 03:41:27;;;;;;;11.30;5.80;;;;;;;-0.27;63.69;100991.88;102174;1319;25251;-70
2021/11/11 03:43:56;;;;;;;11.70;6.70;;;;;;;-0.28;63.61;100982.02;101945;1319;139580;-69
2021/11/11 03:46:24;;;;;;;11.20;5.80;;;;;;;-0.23;63.59;100981.85;106198;1319;23204;-71
2021/11/11 03:48:53;;;;;;;11.00;5.40;;;;;;;-0.22;63.66;100976.80;106017;1320;138255;-71
2021/11/11 03:51:22;;;;;;;10.00;5.90;;;;;;;-0.23;63.49;100970.95;106104;1319;22486;-71
2021/11/11 03:53:51;;;;;;;16.30;6.00;;;;;;;-0.27;63.33;100969.90;106169;1319;22474;-72
2021/11/11 03:56:20;;;;;;;9.90;5.60;;;;;;;-0.24;63.49;100970.05;105671;1324;138620;-72
2021/11/11 03:58:49;;;;;;;9.40;6.20;;;;;;;-0.24;63.45;100959.85;105737;1328;22612;-71
2021/11/11 04:01:19;;;;;;;10.30;5.60;;;;;;;-0.20;63.49;100957.65;105119;1319;140009;-71
2021/11/11 04:03:47;;;;;;;12.70;5.80;;;;;;;-0.19;63.28;100952.60;105801;1322;23046;-72
2021/11/11 04:06:15;;;;;;;10.00;5.70;;;;;;;-0.18;63.57;100947.66;105615;1325;137875;-72
2021/11/11 04:08:44;;;;;;;14.10;6.20;;;;;;;-0.17;63.45;100942.52;105649;1325;22498;-72
2021/11/11 04:11:12;;;;;;;8.60;5.90;;;;;;;-0.18;63.24;100945.98;101957;1327;24242;-72
2021/11/11 04:13:40;;;;;;;10.70;5.90;;;;;;;-0.19;63.26;100947.04;101508;1323;138273;-72
2021/11/11 04:16:28;;;;;;;11.80;6.40;;;;;;;-0.22;63.35;100945.34;101584;1325;22623;-72
2021/11/11 04:18:57;;;;;;;10.50;6.10;;;;;;;-0.24;63.32;100949.30;105048;1325;137743;-72
2021/11/11 04:21:25;;;;;;;10.80;5.30;;;;;;;-0.25;63.24;100948.02;105817;1323;22562;-72
2021/11/11 04:23:54;;;;;;;13.90;6.70;;;;;;;-0.27;63.36;100943.50;105679;1327;23235;-73
2021/11/11 04:27:10;;;;;;;12.70;6.20;;;;;;;-0.28;63.44;100943.96;105724;1326;137672;-73
2021/11/11 04:29:27;;;;;;;11.60;5.70;;;;;;;-0.29;63.50;100942.70;105580;1325;23597;-73
2021/11/11 04:31:57;;;;;;;11.00;6.00;;;;;;;-0.31;63.59;100941.63;105678;1322;137748;-73
2021/11/11 04:34:26;;;;;;;15.30;6.50;;;;;;;-0.32;63.61;100936.95;105907;1325;22326;-72
2021/11/11 04:37:13;;;;;;;13.00;6.80;;;;;;;-0.33;63.83;100930.78;105914;1323;138290;-72
2021/11/11 04:42:32;;;;;;;14.70;6.90;;;;;;;-0.39;63.62;100922.23;105880;1323;139513;-72
2021/11/11 05:01:16;;;;;;;9.80;5.00;;;;;;;-0.46;64.03;100905.27;105300;1323;138260;-70
2021/11/11 05:03:46;;;;;;;10.90;5.10;;;;;;;-0.46;63.95;100911.89;105713;1322;23116;-71
2021/11/11 05:06:17;;;;;;;9.10;5.00;;;;;;;-0.46;64.08;100916.34;105962;1319;140392;-71
2021/11/11 05:08:46;;;;;;;9.40;5.90;;;;;;;-0.47;64.25;100918.95;105909;1322;22422;-70
2021/11/11 05:11:14;;;;;;;11.80;6.80;;;;;;;-0.47;64.19;100919.98;105908;1325;22532;-70
2021/11/11 05:13:44;;;;;;;12.50;6.20;;;;;;;-0.47;64.21;100922.27;105823;1323;139889;-70
2021/11/11 05:16:15;;;;;;;10.10;6.10;;;;;;;-0.46;64.02;100929.39;106018;1319;22293;-70
2021/11/11 05:19:00;;;;;;;10.40;5.40;;;;;;;-0.48;64.38;100933.63;105991;1318;138075;-71
2021/11/11 05:21:29;;;;;;;13.90;6.20;;;;;;;-0.48;64.35;100936.36;106046;1319;24157;-71
2021/11/11 05:23:57;;;;;;;13.70;6.10;;;;;;;-0.48;64.43;100932.98;105834;1320;23580;-72
2021/11/11 05:26:26;;;;;;;15.10;7.00;;;;;;;-0.48;64.50;100932.45;105803;1319;139088;-71
2021/11/11 05:28:56;;;;;;;12.90;6.30;;;;;;;-0.50;64.40;100931.16;106032;1319;22549;-71
2021/11/11 05:31:25;;;;;;;15.10;7.60;;;;;;;-0.46;64.10;100927.02;105734;1322;139534;-72
2021/11/11 05:33:53;;;;;;;13.80;7.20;;;;;;;-0.45;64.39;100920.17;105917;1322;22475;-72
2021/11/11 05:36:21;;;;;;;10.90;6.10;;;;;;;-0.43;64.42;100923.68;105813;1319;138815;-72
2021/11/11 05:38:49;;;;;;;14.50;8.20;;;;;;;-0.42;64.19;100919.70;105935;1322;22488;-72
2021/11/11 05:41:17;;;;;;;20.40;8.00;;;;;;;-0.38;64.32;100914.98;105903;1322;22290;-72
2021/11/11 05:43:47;;;;;;;16.80;7.40;;;;;;;-0.37;64.01;100914.31;105908;1319;138610;-72
2021/11/11 05:46:16;;;;;;;11.60;5.90;;;;;;;-0.34;64.18;100918.50;106015;1319;22490;-72
2021/11/11 05:48:46;;;;;;;10.90;5.50;;;;;;;-0.32;63.98;100908.00;105440;1322;139235;-72
2021/11/11 05:51:15;;;;;;;9.80;5.60;;;;;;;-0.25;63.95;100908.88;105710;1319;22397;-73
2021/11/11 05:53:43;;;;;;;9.50;5.50;;;;;;;-0.21;63.83;100900.80;105784;1321;22993;-73
2021/11/11 05:56:11;;;;;;;11.00;5.70;;;;;;;-0.18;63.98;100894.00;105884;1319;138654;-72
2021/11/11 05:59:39;;;;;;;15.00;6.40;;;;;;;-0.11;63.80;100893.66;99591;1349;545126;-74
2021/11/11 06:02:11;;;;;;;14.90;7.30;;;;;;;-0.07;63.66;100896.12;100942;1330;137372;-75
2021/11/11 06:04:41;;;;;;;13.80;8.20;;;;;;;-0.04;63.45;100888.81;105146;1329;22654;-73
2021/11/11 06:07:11;;;;;;;10.40;5.90;;;;;;;0.03;63.84;100895.82;105012;1328;136867;-72
2021/11/11 06:09:39;;;;;;;11.20;6.30;;;;;;;0.07;63.50;100896.83;105158;1328;22919;-72
2021/11/11 06:12:08;;;;;;;14.90;6.90;;;;;;;0.11;63.65;100901.65;105412;1319;174370;-72
2021/11/11 06:14:38;;;;;;;16.20;6.90;;;;;;;0.15;63.36;100903.85;106205;1316;22388;-69
2021/11/11 06:17:06;;;;;;;21.80;7.50;;;;;;;0.20;63.67;100898.73;106176;1316;22516;-73
2021/11/11 06:19:35;;;;;;;13.50;6.30;;;;;;;0.23;63.58;100898.55;106151;1316;137100;-73
2021/11/11 06:22:04;;;;;;;14.20;6.30;;;;;;;0.28;63.40;100903.45;105241;1316;22907;-75
2021/11/11 06:24:34;;;;;;;15.70;6.50;;;;;;;0.34;63.22;100893.85;106076;1319;137777;-74
2021/11/11 06:27:03;;;;;;;11.40;6.20;;;;;;;0.40;63.29;100893.13;106269;1316;22458;-72
2021/11/11 06:29:33;;;;;;;10.80;5.70;;;;;;;0.45;63.03;100886.77;106198;1319;23126;-75
2021/11/11 06:32:03;;;;;;;13.20;6.10;;;;;;;0.50;62.94;100877.77;106035;1319;137491;-74
2021/11/11 06:34:51;;;;;;;10.30;5.50;;;;;;;0.55;63.02;100870.05;106236;1316;23194;-75
2021/11/11 06:37:20;;;;;;;12.40;7.40;;;;;;;0.60;62.80;100870.09;105813;1316;136847;-74
2021/11/11 06:39:48;;;;;;;11.60;5.90;;;;;;;0.63;62.77;100864.70;106158;1316;22600;-67
2021/11/11 06:42:16;;;;;;;10.00;5.50;;;;;;;0.66;62.36;100857.05;106149;1316;137577;-67
2021/11/11 06:44:47;;;;;;;9.50;5.20;;;;;;;0.69;62.07;100866.06;106168;1318;22475;-67
2021/11/11 06:47:15;;;;;;;13.40;6.90;;;;;;;0.73;62.12;100860.64;106233;1320;22456;-67
2021/11/11 06:49:44;;;;;;;11.90;6.30;;;;;;;0.80;62.09;100862.38;106183;1316;137170;-67
2021/11/11 06:52:12;;;;;;;9.70;5.50;;;;;;;0.87;61.97;100861.25;105497;1315;23174;-67
2021/11/11 06:54:41;;;;;;;10.10;5.50;;;;;;;0.96;61.60;100867.30;106152;1316;136992;-67
2021/11/11 06:57:09;;;;;;;8.00;5.10;;;;;;;1.05;61.17;100862.58;106151;1316;22382;-67
2021/11/11 06:59:42;;;;;;;9.30;4.50;;;;;;;1.14;61.23;100852.00;106208;1319;22504;-67
2021/11/11 07:02:10;;;;;;;7.90;4.60;;;;;;;1.23;60.94;100853.00;106098;1316;137216;-67
2021/11/11 07:04:39;;;;;;;7.70;4.80;;;;;;;1.31;60.17;100847.95;106182;1319;22511;-67
2021/11/11 07:07:07;;;;;;;9.60;5.50;;;;;;;1.41;60.24;100846.39;106052;1319;137000;-67
2021/11/11 07:09:36;;;;;;;11.10;5.40;;;;;;;1.49;60.05;100853.13;106245;1316;22445;-67
2021/11/11 07:12:05;;;;;;;7.90;5.00;;;;;;;1.58;59.85;100851.63;106168;1316;139578;-67
2021/11/11 07:14:33;;;;;;;9.10;5.00;;;;;;;1.67;59.37;100846.70;106279;1316;22401;-67
2021/11/11 07:17:02;;;;;;;8.60;5.30;;;;;;;1.74;59.14;100852.17;102457;1316;22598;-67
2021/11/11 07:19:46;;;;;;;8.80;5.10;;;;;;;1.82;59.05;100854.96;101994;1316;136858;-66
2021/11/11 07:22:14;;;;;;;9.90;5.60;;;;;;;1.88;59.13;100861.80;106292;1316;22506;-68
2021/11/11 07:24:43;;;;;;;12.60;6.10;;;;;;;1.94;59.07;100862.14;106150;1316;138036;-67
2021/11/11 07:27:11;;;;;;;12.20;5.30;;;;;;;2.01;59.04;100853.83;106298;1316;22645;-67
2021/11/11 07:29:39;;;;;;;10.30;6.10;;;;;;;2.08;58.94;100853.21;106169;1320;22482;-67
2021/11/11 07:32:08;;;;;;;15.50;5.80;;;;;;;2.15;58.68;100849.95;106071;1319;137617;-68
2021/11/11 07:34:36;;;;;;;12.40;5.70;;;;;;;2.24;58.51;100846.50;106247;1316;22473;-67
2021/11/11 07:37:05;;;;;;;15.30;6.50;;;;;;;2.31;58.58;100848.30;106150;1316;136960;-67
2021/11/11 07:39:35;;;;;;;10.50;5.60;;;;;;;2.39;58.26;100849.69;106340;1316;22702;-68
2021/11/11 07:42:03;;;;;;;8.30;5.20;;;;;;;2.48;58.12;100850.94;106246;1316;22467;-68
2021/11/11 07:44:33;;;;;;;11.40;5.80;;;;;;;2.55;57.89;100844.23;106074;1316;136754;-68
2021/11/11 07:47:01;;;;;;;14.50;6.60;;;;;;;2.62;57.63;100840.19;106292;1316;22467;-68
2021/11/11 07:49:29;;;;;;;16.30;5.50;;;;;;;2.69;57.38;100829.89;106123;1316;137079;-68
2021/11/11 07:51:59;;;;;;;14.20;6.10;;;;;;;2.76;57.11;100831.54;106267;1316;22532;-68
2021/11/11 07:54:27;;;;;;;9.20;6.00;;;;;;;2.82;57.21;100828.20;106112;1315;137149;-68
2021/11/11 07:56:55;;;;;;;11.80;5.60;;;;;;;2.90;57.00;100821.69;106167;1319;22504;-66
2021/11/11 07:59:24;;;;;;;11.90;5.40;;;;;;;2.97;56.81;100826.94;106193;1316;22537;-66
2021/11/11 08:01:53;;;;;;;10.70;5.60;;;;;;;3.03;56.68;100823.13;106124;1316;136944;-66
2021/11/11 08:04:23;;;;;;;12.30;6.60;;;;;;;3.10;56.65;100827.00;106269;1316;22527;-65
2021/11/11 08:06:51;;;;;;;16.80;6.60;;;;;;;3.19;56.77;100828.85;106086;1316;137303;-66
2021/11/11 08:09:19;;;;;;;12.30;6.50;;;;;;;3.28;56.54;100824.47;106185;1319;22266;-66
2021/11/11 08:11:53;;;;;;;14.30;6.60;;;;;;;3.38;56.27;100820.75;106250;1316;22499;-65
2021/11/11 08:14:24;;;;;;;13.10;7.20;;;;;;;3.47;56.12;100814.33;106107;1316;138074;-65
2021/11/11 08:16:54;;;;;;;17.40;7.00;;;;;;;3.55;55.84;100814.90;105546;1316;22427;-64
2021/11/11 08:19:36;;;;;;;12.30;6.90;;;;;;;3.64;55.20;100817.14;106170;1316;136975;-65
2021/11/11 08:22:05;;;;;;;17.70;7.80;;;;;;;3.72;55.12;100819.79;106039;1316;23508;-65
2021/11/11 08:24:40;;;;;;;15.80;8.20;;;;;;;3.80;54.97;100820.02;106086;1316;137340;-65
2021/11/11 08:27:09;;;;;;;18.00;8.50;;;;;;;3.90;55.01;100814.19;106261;1316;22518;-65
2021/11/11 08:29:39;;;;;;;13.60;7.30;;;;;;;3.98;54.63;100813.91;106079;1316;22418;-65
2021/11/11 08:32:07;;;;;;;17.20;9.20;;;;;;;4.07;54.22;100814.64;105292;1322;136914;-64
2021/11/11 08:34:35;;;;;;;23.90;13.20;;;;;;;4.13;54.04;100809.74;106188;1316;22466;-67
2021/11/11 08:37:04;;;;;;;19.80;12.00;;;;;;;4.21;54.02;100805.70;106089;1316;137210;-67
2021/11/11 08:39:32;;;;;;;17.50;9.70;;;;;;;4.29;53.45;100801.96;106233;1321;22461;-67
2021/11/11 08:42:00;;;;;;;17.20;8.10;;;;;;;4.36;53.31;100798.76;106189;1316;22577;-65
2021/11/11 08:44:29;;;;;;;22.60;9.00;;;;;;;4.41;53.13;100791.59;106105;1316;136780;-66
2021/11/11 08:46:58;;;;;;;16.70;9.10;;;;;;;4.47;53.13;100786.89;106153;1316;22475;-65
2021/11/11 08:49:27;;;;;;;17.20;8.30;;;;;;;4.55;53.02;100781.63;105988;1316;137658;-65
2021/11/11 08:51:55;;;;;;;19.60;8.70;;;;;;;4.63;53.17;100777.92;106160;1316;22466;-65
2021/11/11 08:54:23;;;;;;;14.20;6.90;;;;;;;4.71;52.81;100776.94;106025;1316;138796;-65
2021/11/11 08:56:52;;;;;;;14.60;7.10;;;;;;;4.79;52.62;100774.37;106162;1320;23361;-66
2021/11/11 08:59:20;;;;;;;13.90;6.60;;;;;;;4.87;52.49;100769.49;106158;1322;22530;-66
2021/11/11 09:01:48;;;;;;;15.40;6.00;;;;;;;4.95;51.93;100762.92;105857;1316;138202;-66
2021/11/11 09:04:17;;;;;;;15.20;5.00;;;;;;;5.02;51.47;100753.98;106207;1316;22619;-66
2021/11/11 09:06:46;;;;;;;10.20;4.80;;;;;;;5.09;50.78;100751.89;106056;1316;137303;-66
2021/11/11 09:09:14;;;;;;;15.00;6.00;;;;;;;5.16;50.69;100747.15;106054;1319;23137;-67
2021/11/11 09:11:44;;;;;;;12.30;5.50;;;;;;;5.23;50.24;100742.30;106114;1319;23256;-68
2021/11/11 09:14:16;;;;;;;12.80;5.70;;;;;;;5.22;50.11;100722.06;104093;1319;137331;-65
2021/11/11 09:16:44;;;;;;;14.10;5.20;;;;;;;5.37;49.34;100724.71;102068;1320;22560;-66
2021/11/11 09:19:13;;;;;;;16.20;5.70;;;;;;;5.42;49.10;100714.91;105997;1319;137126;-67
2021/11/11 09:21:41;;;;;;;10.30;5.10;;;;;;;5.46;49.11;100708.09;106100;1318;22579;-65
2021/11/11 09:24:10;;;;;;;11.10;5.00;;;;;;;5.50;48.91;100704.45;106078;1325;22593;-66
2021/11/11 09:26:38;;;;;;;12.90;5.60;;;;;;;5.53;49.19;100700.13;105858;1323;136971;-66
2021/11/11 09:29:07;;;;;;;14.40;4.90;;;;;;;5.59;49.17;100700.92;106121;1319;22580;-65
2021/11/11 09:31:38;;;;;;;13.40;4.80;;;;;;;5.63;49.08;100689.77;105708;1323;137305;-66
2021/11/11 09:34:06;;;;;;;13.00;4.90;;;;;;;5.70;49.20;100687.27;106125;1319;22504;-66
2021/11/11 09:36:35;;;;;;;10.00;3.80;;;;;;;5.77;48.51;100683.11;106027;1319;137877;-66
2021/11/11 09:39:05;;;;;;;11.70;4.60;;;;;;;5.82;48.33;100671.86;106111;1319;23694;-66
2021/11/11 09:41:35;;;;;;;8.70;3.90;;;;;;;5.85;47.86;100665.31;106090;1319;22496;-66
2021/11/11 09:44:04;;;;;;;8.60;4.40;;;;;;;5.88;47.75;100660.90;105711;1318;137453;-66
2021/11/11 09:46:32;;;;;;;9.10;4.00;;;;;;;5.91;47.49;100657.72;106095;1319;22378;-66
2021/11/11 09:49:03;;;;;;;14.40;4.60;;;;;;;5.92;47.40;100643.07;105995;1320;136966;-66
2021/11/11 09:51:32;;;;;;;9.00;3.90;;;;;;;5.99;46.99;100635.90;106114;1319;23316;-66
2021/11/11 09:59:31;;;;;;;13.70;4.60;;;;;;;6.13;46.43;100618.08;106106;1324;23574;-67
2021/11/11 10:02:00;;;;;;;9.60;4.00;;;;;;;6.16;46.22;100608.98;105940;1318;137394;-67
2021/11/11 10:04:28;;;;;;;8.80;4.20;;;;;;;6.19;46.44;100609.20;105817;1323;22411;-68
2021/11/11 10:06:59;;;;;;;8.80;4.30;;;;;;;6.26;46.04;100602.21;106029;1319;137043;-66
2021/11/11 10:09:28;;;;;;;8.70;4.90;;;;;;;6.32;46.37;100592.38;106051;1318;23259;-67
2021/11/11 10:12:02;;;;;;;7.20;4.30;;;;;;;6.37;46.27;100579.55;106094;1319;23300;-67
2021/11/11 10:14:36;;;;;;;9.40;5.00;;;;;;;6.44;46.07;100577.12;106023;1319;137532;-68
2021/11/11 10:17:08;;;;;;;11.70;4.60;;;;;;;6.48;45.55;100575.80;106108;1320;22579;-67
2021/11/11 10:19:39;;;;;;;7.60;4.30;;;;;;;6.52;45.70;100571.92;106018;1325;138225;-67
2021/11/11 10:22:16;;;;;;;9.70;4.70;;;;;;;6.56;45.65;100568.73;106120;1325;22453;-67
2021/11/11 10:24:52;;;;;;;9.40;5.50;;;;;;;6.61;45.49;100564.45;105964;1318;137481;-68
2021/11/11 10:27:25;;;;;;;13.10;5.70;;;;;;;6.65;45.39;100556.93;106086;1318;22507;-67
2021/11/11 10:30:01;;;;;;;16.00;6.10;;;;;;;6.69;45.10;100546.11;106084;1325;23351;-67
2021/11/11 10:32:40;;;;;;;25.00;6.80;;;;;;;6.74;44.86;100541.58;106041;1319;137760;-67
2021/11/11 10:35:27;;;;;;;25.50;10.60;;;;;;;6.77;44.53;100532.49;106076;1323;22494;-67
2021/11/11 10:38:19;;;;;;;13.00;6.00;;;;;;;6.80;44.44;100514.31;106016;1319;139035;-67
2021/11/11 10:40:49;;;;;;;21.50;5.60;;;;;;;6.85;44.74;100501.83;106165;1319;22481;-68
2021/11/11 10:43:22;;;;;;;16.90;7.50;;;;;;;6.91;44.62;100498.02;106063;1319;139388;-68
2021/11/11 10:45:51;;;;;;;17.60;7.00;;;;;;;7.02;44.70;100495.30;106043;1321;22333;-68
2021/11/11 10:48:23;;;;;;;13.90;5.50;;;;;;;7.12;44.69;100499.11;106055;1319;137725;-67
2021/11/11 10:51:00;;;;;;;39.40;14.00;;;;;;;7.20;44.51;100503.94;106156;1319;23064;-68
2021/11/11 10:53:30;;;;;;;9.90;5.90;;;;;;;7.25;44.42;100512.67;106161;1324;22301;-69
2021/11/11 10:56:00;;;;;;;13.90;7.50;;;;;;;7.25;44.28;100513.76;106066;1319;137926;-69
2021/11/11 10:58:30;;;;;;;14.60;7.30;;;;;;;7.23;44.39;100518.77;106153;1324;22604;-69
2021/11/11 11:01:03;;;;;;;12.70;4.80;;;;;;;7.20;44.52;100522.17;106035;1319;138087;-69
2021/11/11 11:03:45;;;;;;;11.20;4.90;;;;;;;7.18;44.71;100524.16;106175;1319;22448;-69
2021/11/11 11:06:18;;;;;;;10.40;5.10;;;;;;;7.19;45.00;100527.59;106133;1319;22585;-69
2021/11/11 11:08:57;;;;;;;12.50;5.50;;;;;;;7.20;44.99;100524.59;105820;1319;137244;-69
2021/11/11 11:11:34;;;;;;;11.90;5.30;;;;;;;7.21;45.39;100520.11;106075;1319;22387;-69
2021/11/11 11:14:04;;;;;;;14.60;6.80;;;;;;;7.22;45.46;100517.52;106003;1323;138264;-69
2021/11/11 11:16:34;;;;;;;31.60;7.30;;;;;;;7.25;45.31;100510.55;105953;1320;22437;-68
2021/11/11 11:19:03;;;;;;;12.90;6.40;;;;;;;7.28;45.99;100511.55;106053;1319;137741;-69
2021/11/11 11:21:37;;;;;;;13.70;6.20;;;;;;;7.31;46.21;100510.00;106009;1319;22418;-67
2021/11/11 11:24:13;;;;;;;21.50;7.00;;;;;;;7.35;46.35;100507.48;106020;1319;22401;-66
2021/11/11 11:27:05;;;;;;;10.20;5.60;;;;;;;7.39;46.33;100497.23;105877;1319;138260;-67
2021/11/11 11:29:45;;;;;;;12.30;6.40;;;;;;;7.44;46.17;100490.85;106107;1319;22526;-66
2021/11/11 11:32:19;;;;;;;12.60;6.20;;;;;;;7.48;46.18;100485.38;105914;1318;137521;-65
2021/11/11 11:34:51;;;;;;;7.40;4.20;;;;;;;7.50;46.09;100479.90;105863;1323;23232;-66
2021/11/11 11:37:21;;;;;;;12.40;4.80;;;;;;;7.52;45.73;100478.59;105927;1319;136994;-67
2021/11/11 11:39:51;;;;;;;17.00;5.80;;;;;;;7.52;45.52;100473.66;106094;1318;23297;-68
2021/11/11 11:42:24;;;;;;;11.60;4.30;;;;;;;7.52;45.51;100467.32;105997;1319;22482;-69
2021/11/11 11:44:57;;;;;;;7.40;4.10;;;;;;;7.53;45.30;100467.58;105945;1319;136888;-69
2021/11/11 11:50:09;;;;;;;8.10;4.70;;;;;;;7.51;45.58;100456.56;105987;1323;137293;-70
2021/11/11 11:52:39;;;;;;;11.30;5.00;;;;;;;7.52;45.63;100457.56;106118;1324;23399;-69
2021/11/11 11:55:17;;;;;;;14.30;4.90;;;;;;;7.52;45.63;100456.39;105923;1319;138006;-69
2021/11/11 12:06:11;;;;;;;11.30;5.40;;;;;;;7.47;45.71;100435.16;106123;1319;23198;-69